createdAt,value
2019-02-18T00:00:45.358Z,9.40
2019-02-18T00:03:11.978Z,9.40
2019-02-18T00:05:39.165Z,9.30
2019-02-18T00:08:05.437Z,9.30
2019-02-18T00:10:31.755Z,9.20
2019-02-18T00:12:58.065Z,9.20
2019-02-18T00:15:24.675Z,9.10
2019-02-18T00:17:51.103Z,9.00
2019-02-18T00:20:17.434Z,8.90
2019-02-18T00:22:43.809Z,8.90
2019-02-18T00:25:10.193Z,8.80
2019-02-18T00:27:36.522Z,8.70
2019-02-18T00:30:03.881Z,8.70
2019-02-18T00:32:30.434Z,8.50
2019-02-18T00:34:56.845Z,8.40
2019-02-18T00:37:24.729Z,8.40
2019-02-18T00:39:51.248Z,8.30
2019-02-18T00:42:17.534Z,8.20
2019-02-18T00:44:44.038Z,8.10
2019-02-18T00:47:10.237Z,8.00
2019-02-18T00:49:36.671Z,7.90
2019-02-18T00:52:03.101Z,7.80
2019-02-18T00:54:29.433Z,7.70
2019-02-18T00:56:55.715Z,7.70
2019-02-18T00:59:22.195Z,7.50
2019-02-18T01:01:48.490Z,7.50
2019-02-18T01:04:14.858Z,7.40
2019-02-18T01:06:41.185Z,7.30
2019-02-18T01:09:07.516Z,7.20
2019-02-18T01:11:33.948Z,7.20
2019-02-18T01:14:00.278Z,7.10
2019-02-18T01:16:26.609Z,7.00
2019-02-18T01:18:52.939Z,7.00
2019-02-18T01:21:19.373Z,6.90
2019-02-18T01:23:47.608Z,6.90
2019-02-18T01:26:13.877Z,6.80
2019-02-18T01:28:40.204Z,6.70
2019-02-18T01:31:06.638Z,6.70
2019-02-18T01:33:32.973Z,6.60
2019-02-18T01:36:00.864Z,6.60
2019-02-18T01:38:27.105Z,6.50
2019-02-18T01:40:53.393Z,6.50
2019-02-18T01:43:19.685Z,6.40
2019-02-18T01:45:46.053Z,6.40
2019-02-18T01:48:12.289Z,6.30
2019-02-18T01:50:38.618Z,6.30
2019-02-18T01:53:05.046Z,6.20
2019-02-18T01:55:31.476Z,6.20
2019-02-18T01:57:57.780Z,6.20
2019-02-18T02:00:24.111Z,6.10
2019-02-18T02:02:50.467Z,6.10
2019-02-18T02:05:17.202Z,6.00
2019-02-18T02:07:43.764Z,5.90
2019-02-18T02:12:37.922Z,5.80
2019-02-18T02:15:08.060Z,5.80
2019-02-18T02:17:34.393Z,5.80
2019-02-18T02:20:00.719Z,5.70
2019-02-18T02:22:27.051Z,5.70
2019-02-18T02:24:53.596Z,5.60
2019-02-18T02:27:19.901Z,5.60
2019-02-18T02:29:46.244Z,5.60
2019-02-18T02:32:12.575Z,5.60
2019-02-18T02:34:38.904Z,5.60
2019-02-18T02:37:05.145Z,5.60
2019-02-18T02:39:31.462Z,5.50
2019-02-18T02:41:58.723Z,5.50
2019-02-18T02:44:25.045Z,5.50
2019-02-18T02:46:51.254Z,5.50
2019-02-18T02:49:17.603Z,5.40
2019-02-18T02:51:44.181Z,5.40
2019-02-18T02:54:10.495Z,5.40
2019-02-18T02:56:39.071Z,5.30
2019-02-18T02:59:05.283Z,5.30
2019-02-18T03:01:31.613Z,5.30
2019-02-18T03:03:57.892Z,5.30
2019-02-18T03:06:24.276Z,5.20
2019-02-18T03:08:50.637Z,5.20
2019-02-18T03:11:17.035Z,5.20
2019-02-18T03:13:43.313Z,5.20
2019-02-18T03:16:09.697Z,5.10
2019-02-18T03:18:36.127Z,5.10
2019-02-18T03:21:02.372Z,5.10
2019-02-18T03:23:28.787Z,5.00
2019-02-18T03:25:55.166Z,5.00
2019-02-18T03:28:40.209Z,4.90
2019-02-18T03:31:10.340Z,4.90
2019-02-18T03:33:40.233Z,4.80
2019-02-18T03:36:06.557Z,4.80
2019-02-18T03:38:32.883Z,4.80
2019-02-18T03:41:03.119Z,4.70
2019-02-18T03:43:27.911Z,4.70
2019-02-18T03:45:54.333Z,4.60
2019-02-18T03:48:20.665Z,4.60
2019-02-18T03:50:46.924Z,4.60
2019-02-18T03:53:13.822Z,4.50
2019-02-18T03:55:40.266Z,4.50
2019-02-18T03:58:06.594Z,4.50
2019-02-18T04:00:32.928Z,4.40
2019-02-18T04:02:59.273Z,4.40
2019-02-18T04:05:25.928Z,4.40
2019-02-18T04:07:52.215Z,4.40
2019-02-18T04:10:18.552Z,4.30
2019-02-18T04:12:45.104Z,4.30
2019-02-18T04:15:18.399Z,4.30
2019-02-18T04:17:44.818Z,4.30
2019-02-18T04:20:11.250Z,4.30
2019-02-18T04:22:37.511Z,4.20
2019-02-18T04:25:05.446Z,4.20
2019-02-18T04:27:31.877Z,4.20
2019-02-18T04:29:58.206Z,4.20
2019-02-18T04:32:24.864Z,4.10
2019-02-18T04:34:51.275Z,4.10
2019-02-18T04:37:17.607Z,4.10
2019-02-18T04:39:45.577Z,4.10
2019-02-18T04:42:13.939Z,4.10
2019-02-18T04:44:40.115Z,4.00
2019-02-18T04:47:06.520Z,4.00
2019-02-18T04:49:32.944Z,4.00
2019-02-18T04:51:59.373Z,3.90
2019-02-18T04:54:25.635Z,3.90
2019-02-18T04:56:52.038Z,3.90
2019-02-18T04:59:18.367Z,3.90
2019-02-18T05:01:44.703Z,3.90
2019-02-18T05:04:11.030Z,3.80
2019-02-18T05:06:37.357Z,3.80
2019-02-18T05:09:05.721Z,3.80
2019-02-18T05:11:32.319Z,3.80
2019-02-18T05:13:58.707Z,3.80
2019-02-18T05:16:24.935Z,3.70
2019-02-18T05:18:51.251Z,3.70
2019-02-18T05:21:17.597Z,3.70
2019-02-18T05:23:43.924Z,3.60
2019-02-18T05:26:10.254Z,3.60
2019-02-18T05:28:36.583Z,3.60
2019-02-18T05:31:03.059Z,3.60
2019-02-18T05:33:29.450Z,3.60
2019-02-18T05:35:56.042Z,3.60
2019-02-18T05:38:22.520Z,3.50
2019-02-18T05:40:48.879Z,3.50
2019-02-18T05:43:15.398Z,3.50
2019-02-18T05:45:41.886Z,3.50
2019-02-18T05:48:08.788Z,3.50
2019-02-18T05:50:35.204Z,3.50
2019-02-18T05:53:01.495Z,3.40
2019-02-18T05:55:27.815Z,3.40
2019-02-18T05:57:54.415Z,3.40
2019-02-18T06:00:20.825Z,3.40
2019-02-18T06:02:47.380Z,3.40
2019-02-18T06:05:13.799Z,3.40
2019-02-18T06:07:40.079Z,3.30
2019-02-18T06:10:08.029Z,3.30
2019-02-18T06:12:34.420Z,3.30
2019-02-18T06:15:00.856Z,3.30
2019-02-18T06:17:27.741Z,3.30
2019-02-18T06:19:53.954Z,3.30
2019-02-18T06:22:20.301Z,3.30
2019-02-18T06:24:48.247Z,3.30
2019-02-18T06:27:15.929Z,3.30
2019-02-18T06:29:42.266Z,3.30
2019-02-18T06:32:10.306Z,3.30
2019-02-18T06:34:36.660Z,3.20
2019-02-18T06:37:03.004Z,3.20
2019-02-18T06:39:40.203Z,3.20
2019-02-18T06:41:58.349Z,3.20
2019-02-18T06:44:26.694Z,3.20
2019-02-18T06:46:56.155Z,3.20
2019-02-18T06:49:22.531Z,3.20
2019-02-18T06:51:48.961Z,3.10
2019-02-18T06:54:15.279Z,3.10
2019-02-18T06:56:55.752Z,3.10
2019-02-18T06:59:27.000Z,3.10
2019-02-18T07:01:57.935Z,3.10
2019-02-18T07:04:26.213Z,3.10
2019-02-18T07:06:54.359Z,3.10
2019-02-18T07:09:25.834Z,3.10
2019-02-18T07:12:06.359Z,3.10
2019-02-18T07:14:32.732Z,3.10
2019-02-18T07:16:59.003Z,3.10
2019-02-18T07:19:25.400Z,3.10
2019-02-18T07:21:51.635Z,3.10
2019-02-18T07:24:18.403Z,3.20
2019-02-18T07:26:44.790Z,3.20
2019-02-18T07:29:11.224Z,3.20
2019-02-18T07:31:37.551Z,3.20
2019-02-18T07:34:03.890Z,3.30
2019-02-18T07:36:30.215Z,3.30
2019-02-18T07:38:56.544Z,3.40
2019-02-18T07:41:22.978Z,3.40
2019-02-18T07:43:49.315Z,3.50
2019-02-18T07:46:15.553Z,3.50
2019-02-18T07:48:42.074Z,3.50
2019-02-18T07:51:08.511Z,3.60
2019-02-18T07:53:34.761Z,3.70
2019-02-18T07:56:01.220Z,3.80
2019-02-18T07:58:27.603Z,3.80
2019-02-18T08:00:54.030Z,3.90
2019-02-18T08:03:20.401Z,4.00
2019-02-18T08:05:46.690Z,4.10
2019-02-18T08:08:12.937Z,4.20
2019-02-18T08:10:39.269Z,4.30
2019-02-18T08:13:05.684Z,4.40
2019-02-18T08:15:32.328Z,4.50
2019-02-18T08:17:58.616Z,4.70
2019-02-18T08:20:24.925Z,4.80
2019-02-18T08:22:51.241Z,5.00
2019-02-18T08:25:17.959Z,5.20
2019-02-18T08:27:44.401Z,5.30
2019-02-18T08:30:13.998Z,5.50
2019-02-18T08:32:40.506Z,5.70
2019-02-18T08:35:07.479Z,5.90
2019-02-18T08:37:33.810Z,6.00
2019-02-18T08:40:00.336Z,6.20
2019-02-18T08:42:26.594Z,6.40
2019-02-18T08:44:52.931Z,6.60
2019-02-18T08:47:19.345Z,6.80
2019-02-18T08:49:47.563Z,7.00
2019-02-18T08:52:13.842Z,7.20
2019-02-18T08:54:40.270Z,7.30
2019-02-18T08:57:06.806Z,7.50
2019-02-18T08:59:33.161Z,7.70
2019-02-18T09:02:01.424Z,7.90
2019-02-18T09:04:28.209Z,8.10
2019-02-18T09:06:54.791Z,8.20
2019-02-18T09:09:21.109Z,8.40
2019-02-18T09:11:47.551Z,8.60
2019-02-18T09:14:13.993Z,8.70
2019-02-18T09:16:40.432Z,8.90
2019-02-18T09:19:06.852Z,9.00
2019-02-18T09:21:34.720Z,9.20
2019-02-18T09:24:02.990Z,9.30
2019-02-18T09:26:29.259Z,9.40
2019-02-18T09:28:55.660Z,9.60
2019-02-18T09:31:23.905Z,9.70
2019-02-18T09:33:50.338Z,9.80
2019-02-18T09:36:16.894Z,10.00
2019-02-18T09:38:43.225Z,10.10
2019-02-18T09:41:09.555Z,10.20
2019-02-18T09:43:35.763Z,10.40
2019-02-18T09:46:02.189Z,10.50
2019-02-18T09:48:28.649Z,10.70
2019-02-18T09:50:55.082Z,10.80
2019-02-18T09:53:21.442Z,11.00
2019-02-18T09:55:48.052Z,11.10
2019-02-18T09:58:14.380Z,11.20
2019-02-18T10:00:40.918Z,11.40
2019-02-18T10:03:07.472Z,11.50
2019-02-18T10:05:33.882Z,11.60
2019-02-18T10:08:00.212Z,11.80
2019-02-18T10:10:26.953Z,11.90
2019-02-18T10:12:53.283Z,12.10
2019-02-18T10:15:19.695Z,12.20
2019-02-18T10:17:46.147Z,12.30
2019-02-18T10:20:12.880Z,12.40
2019-02-18T10:22:39.217Z,12.60
2019-02-18T10:25:10.769Z,12.70
2019-02-18T10:27:37.203Z,12.80
2019-02-18T10:30:05.429Z,12.90
2019-02-18T10:32:31.911Z,13.00
2019-02-18T10:34:58.252Z,13.20
2019-02-18T10:37:24.584Z,13.30
2019-02-18T10:39:51.005Z,13.40
2019-02-18T10:42:17.665Z,13.50
2019-02-18T10:44:44.485Z,13.60
2019-02-18T10:47:10.762Z,13.70
2019-02-18T10:49:37.246Z,13.90
2019-02-18T10:52:04.806Z,13.90
2019-02-18T10:54:31.137Z,14.00
2019-02-18T10:56:57.568Z,14.10
2019-02-18T10:59:24.205Z,14.30
2019-02-18T11:01:50.460Z,14.30
2019-02-18T11:04:16.973Z,14.40
2019-02-18T11:06:43.712Z,14.50
2019-02-18T11:09:10.756Z,14.60
2019-02-18T11:11:37.393Z,14.70
2019-02-18T11:14:03.727Z,14.80
2019-02-18T11:16:30.360Z,14.90
2019-02-18T11:18:56.794Z,15.00
2019-02-18T11:21:23.127Z,15.00
2019-02-18T11:23:49.454Z,15.10
2019-02-18T11:26:15.788Z,15.20
2019-02-18T11:28:42.048Z,15.30
2019-02-18T11:31:08.548Z,15.40
2019-02-18T11:33:36.554Z,15.40
2019-02-18T11:36:02.955Z,15.50
2019-02-18T11:38:29.195Z,15.60
2019-02-18T11:40:55.608Z,15.70
2019-02-18T11:43:22.963Z,15.80
2019-02-18T11:45:49.703Z,15.80
2019-02-18T11:48:15.994Z,15.90
2019-02-18T11:50:42.394Z,16.00
2019-02-18T11:53:09.222Z,16.10
2019-02-18T11:55:35.555Z,16.10
2019-02-18T11:58:01.869Z,16.20
2019-02-18T12:00:28.407Z,16.20
2019-02-18T12:03:03.655Z,16.30
2019-02-18T12:05:25.468Z,16.30
2019-02-18T12:07:51.871Z,16.40
2019-02-18T12:10:18.545Z,16.50
2019-02-18T12:12:44.976Z,16.50
2019-02-18T12:15:15.062Z,16.60
2019-02-18T12:18:01.218Z,16.70
2019-02-18T12:20:27.621Z,16.70
2019-02-18T12:22:53.925Z,16.90
2019-02-18T12:25:20.890Z,16.90
2019-02-18T12:27:47.095Z,16.90
2019-02-18T12:30:14.713Z,17.00
2019-02-18T12:32:41.212Z,17.10
2019-02-18T12:35:08.005Z,17.10
2019-02-18T12:37:34.243Z,17.20
2019-02-18T12:40:00.616Z,17.20
2019-02-18T12:42:26.945Z,17.30
2019-02-18T12:45:04.867Z,17.30
2019-02-18T12:47:31.383Z,17.40
2019-02-18T12:49:57.666Z,17.50
2019-02-18T12:52:24.041Z,17.50
2019-02-18T12:54:52.163Z,17.60
2019-02-18T12:57:18.549Z,17.70
2019-02-18T12:59:45.089Z,17.70
2019-02-18T13:02:12.361Z,17.80
2019-02-18T13:04:38.699Z,17.80
2019-02-18T13:07:05.098Z,17.90
2019-02-18T13:09:31.527Z,17.90
2019-02-18T13:11:59.235Z,18.00
2019-02-18T13:14:25.825Z,18.00
2019-02-18T13:16:52.156Z,18.10
2019-02-18T13:19:20.105Z,18.10
2019-02-18T13:21:46.457Z,18.10
2019-02-18T13:24:12.828Z,18.10
2019-02-18T13:26:39.534Z,18.20
2019-02-18T13:29:05.961Z,18.30
2019-02-18T13:31:32.294Z,18.30
2019-02-18T13:33:58.622Z,18.30
2019-02-18T13:36:24.948Z,18.30
2019-02-18T13:38:51.186Z,18.40
2019-02-18T13:41:17.507Z,18.40
2019-02-18T13:43:43.836Z,18.40
2019-02-18T13:46:10.577Z,18.40
2019-02-18T13:48:36.968Z,18.40
2019-02-18T13:51:04.732Z,18.50
2019-02-18T13:53:30.995Z,18.50
2019-02-18T13:55:57.425Z,18.50
2019-02-18T13:58:23.764Z,18.50
2019-02-18T14:00:51.431Z,18.50
2019-02-18T14:03:17.644Z,18.50
2019-02-18T14:05:44.398Z,18.50
2019-02-18T14:08:10.832Z,18.60
2019-02-18T14:10:37.259Z,18.60
2019-02-18T14:13:09.323Z,18.60
2019-02-18T14:15:35.620Z,18.50
2019-02-18T14:18:02.299Z,18.60
2019-02-18T14:20:28.696Z,18.60
2019-02-18T14:22:55.465Z,18.60
2019-02-18T14:25:21.775Z,18.60
2019-02-18T14:27:48.125Z,18.50
2019-02-18T14:30:15.991Z,18.50
2019-02-18T14:32:42.526Z,18.50
2019-02-18T14:35:09.485Z,18.50
2019-02-18T14:37:35.905Z,18.50
2019-02-18T14:40:02.748Z,18.50
2019-02-18T14:42:29.704Z,18.50
2019-02-18T14:44:56.134Z,18.50
2019-02-18T14:47:23.164Z,18.50
2019-02-18T14:49:58.516Z,18.50
2019-02-18T14:52:25.150Z,18.30
2019-02-18T14:54:51.723Z,18.40
2019-02-18T14:57:18.526Z,18.40
2019-02-18T14:59:45.064Z,18.40
2019-02-18T15:02:11.801Z,18.40
2019-02-18T15:04:38.083Z,18.40
2019-02-18T15:07:04.564Z,18.40
2019-02-18T15:09:30.895Z,18.40
2019-02-18T15:11:57.542Z,18.40
2019-02-18T15:14:24.068Z,18.40
2019-02-18T15:16:50.644Z,18.40
2019-02-18T15:19:17.037Z,18.40
2019-02-18T15:21:43.282Z,18.40
2019-02-18T15:24:09.554Z,18.40
2019-02-18T15:26:37.038Z,18.40
2019-02-18T15:29:03.585Z,18.40
2019-02-18T15:31:30.142Z,18.30
2019-02-18T15:33:56.555Z,18.30
2019-02-18T15:36:23.294Z,18.30
2019-02-18T15:38:49.566Z,18.20
2019-02-18T15:41:16.384Z,18.20
2019-02-18T15:43:43.096Z,18.20
2019-02-18T15:46:09.645Z,18.10
2019-02-18T15:48:36.482Z,18.10
2019-02-18T15:51:02.991Z,18.10
2019-02-18T15:53:29.555Z,18.00
2019-02-18T15:55:56.392Z,18.00
2019-02-18T15:58:22.664Z,17.90
2019-02-18T16:00:49.179Z,17.90
2019-02-18T16:03:15.692Z,17.90
2019-02-18T16:05:42.228Z,17.80
2019-02-18T16:08:08.558Z,17.80
2019-02-18T16:10:34.888Z,17.70
2019-02-18T16:13:01.218Z,17.70
2019-02-18T16:15:28.072Z,17.60
2019-02-18T16:17:54.478Z,17.50
2019-02-18T16:20:21.147Z,17.50
2019-02-18T16:22:47.562Z,17.40
2019-02-18T16:25:20.253Z,17.40
2019-02-18T16:27:46.674Z,17.30
2019-02-18T16:30:13.884Z,17.20
2019-02-18T16:32:40.769Z,17.20
2019-02-18T16:35:07.925Z,17.10
2019-02-18T16:37:34.615Z,17.10
2019-02-18T16:40:00.988Z,17.00
2019-02-18T16:42:27.318Z,16.90
2019-02-18T16:44:53.853Z,16.80
2019-02-18T16:47:20.184Z,16.70
2019-02-18T16:49:46.849Z,16.70
2019-02-18T16:52:13.152Z,16.60
2019-02-18T16:54:39.449Z,16.50
2019-02-18T16:57:05.827Z,16.40
2019-02-18T16:59:32.253Z,16.30
2019-02-18T17:02:01.288Z,16.20
2019-02-18T17:04:27.607Z,16.10
2019-02-18T17:06:54.323Z,16.00
2019-02-18T17:09:20.947Z,15.90
2019-02-18T17:11:47.740Z,15.80
2019-02-18T17:14:14.120Z,15.70
2019-02-18T17:16:40.464Z,15.60
2019-02-18T17:19:06.882Z,15.50
2019-02-18T17:21:33.193Z,15.40
2019-02-18T17:23:59.542Z,15.30
2019-02-18T17:26:25.897Z,15.20
2019-02-18T17:28:52.584Z,15.10
2019-02-18T17:31:18.875Z,15.00
2019-02-18T17:33:45.183Z,14.90
2019-02-18T17:36:11.506Z,14.80
2019-02-18T17:38:37.761Z,14.70
2019-02-18T17:41:04.158Z,14.60
2019-02-18T17:43:30.600Z,14.60
2019-02-18T17:45:56.925Z,14.50
2019-02-18T17:48:23.784Z,14.40
2019-02-18T17:50:50.085Z,14.40
2019-02-18T17:53:16.383Z,14.30
2019-02-18T17:55:42.761Z,14.30
2019-02-18T17:58:09.411Z,14.20
2019-02-18T18:00:40.642Z,14.20
2019-02-18T18:03:07.241Z,14.10
2019-02-18T18:05:33.526Z,14.00
2019-02-18T18:08:00.142Z,13.90
2019-02-18T18:10:26.475Z,13.70
2019-02-18T18:12:52.806Z,13.70
2019-02-18T18:15:19.236Z,13.50
2019-02-18T18:17:45.498Z,13.40
2019-02-18T18:20:13.007Z,13.30
2019-02-18T18:22:39.457Z,13.20
2019-02-18T18:25:08.162Z,13.00
2019-02-18T18:27:34.575Z,12.90
2019-02-18T18:30:00.869Z,12.80
2019-02-18T18:32:27.163Z,12.70
2019-02-18T18:34:53.564Z,12.50
2019-02-18T18:37:19.865Z,12.40
2019-02-18T18:39:46.144Z,12.30
2019-02-18T18:42:12.464Z,12.20
2019-02-18T18:44:38.938Z,12.10
2019-02-18T18:47:05.224Z,12.00
2019-02-18T18:49:31.854Z,11.90
2019-02-18T18:51:58.185Z,11.90
2019-02-18T18:54:24.516Z,11.80
2019-02-18T18:56:50.845Z,11.70
2019-02-18T18:59:17.117Z,11.60
2019-02-18T19:01:43.613Z,11.60
2019-02-18T19:04:10.218Z,11.50
2019-02-18T19:06:36.580Z,11.40
2019-02-18T19:09:03.770Z,11.40
2019-02-18T19:11:30.259Z,11.30
2019-02-18T19:13:56.912Z,11.20
2019-02-18T19:16:23.237Z,11.20
2019-02-18T19:18:49.527Z,11.10
2019-02-18T19:21:16.503Z,11.10
2019-02-18T19:23:43.064Z,11.00
2019-02-18T19:26:09.363Z,11.00
2019-02-18T19:28:35.645Z,11.00
2019-02-18T19:31:02.130Z,11.00
2019-02-18T19:33:28.366Z,11.00
2019-02-18T19:35:55.712Z,11.00
2019-02-18T19:38:22.046Z,11.10
2019-02-18T19:40:49.095Z,11.10
2019-02-18T19:43:15.423Z,11.10
2019-02-18T19:45:41.712Z,11.10
2019-02-18T19:48:08.084Z,11.20
2019-02-18T19:50:34.311Z,11.20
2019-02-18T19:53:00.581Z,11.20
2019-02-18T19:55:26.971Z,11.30
2019-02-18T19:57:53.318Z,11.30
2019-02-18T20:00:20.250Z,11.30
2019-02-18T20:02:47.029Z,11.30
2019-02-18T20:05:13.506Z,11.30
2019-02-18T20:07:39.808Z,11.30
2019-02-18T20:10:08.927Z,11.30
2019-02-18T20:12:36.672Z,11.30
2019-02-18T20:15:05.349Z,11.30
2019-02-18T20:17:31.633Z,11.30
2019-02-18T20:19:57.935Z,11.30
2019-02-18T20:22:24.288Z,11.30
2019-02-18T20:24:50.722Z,11.40
2019-02-18T20:27:17.154Z,11.40
2019-02-18T20:29:43.482Z,11.40
2019-02-18T20:32:11.571Z,11.40
2019-02-18T20:34:37.884Z,11.40
2019-02-18T20:37:04.540Z,11.50
2019-02-18T20:39:30.854Z,11.50
2019-02-18T20:41:57.499Z,11.50
2019-02-18T20:44:23.924Z,11.60
2019-02-18T20:46:50.221Z,11.60
2019-02-18T20:49:16.516Z,11.60
2019-02-18T20:51:42.916Z,11.70
2019-02-18T20:54:09.421Z,11.70
2019-02-18T20:56:35.726Z,11.70
2019-02-18T20:59:02.215Z,11.80
2019-02-18T21:01:28.539Z,11.80
2019-02-18T21:03:54.870Z,11.80
2019-02-18T21:06:21.519Z,11.80
2019-02-18T21:08:48.266Z,11.80
2019-02-18T21:11:14.680Z,11.90
2019-02-18T21:13:41.331Z,11.90
2019-02-18T21:16:07.751Z,11.90
2019-02-18T21:18:34.083Z,11.80
2019-02-18T21:21:00.412Z,11.80
2019-02-18T21:23:26.622Z,11.80
2019-02-18T21:25:52.907Z,11.80
2019-02-18T21:28:19.524Z,11.80
2019-02-18T21:30:46.130Z,11.80
2019-02-18T21:33:12.415Z,11.80
2019-02-18T21:35:39.028Z,11.70
2019-02-18T21:38:05.337Z,11.70
2019-02-18T21:40:31.600Z,11.70
2019-02-18T21:42:57.911Z,11.70
2019-02-18T21:45:24.404Z,11.70
2019-02-18T21:47:50.693Z,11.70
2019-02-18T21:50:17.403Z,11.70
2019-02-18T21:52:44.054Z,11.70
2019-02-18T21:55:12.818Z,11.70
2019-02-18T21:57:39.073Z,11.70
2019-02-18T22:00:11.071Z,11.60
2019-02-18T22:02:37.671Z,11.60
2019-02-18T22:05:04.182Z,11.60
2019-02-18T22:07:30.824Z,11.60
2019-02-18T22:09:57.058Z,11.60
2019-02-18T22:12:23.703Z,11.60
2019-02-18T22:14:50.018Z,11.60
2019-02-18T22:17:16.454Z,11.50
2019-02-18T22:19:42.721Z,11.60
2019-02-18T22:22:09.020Z,11.50
2019-02-18T22:24:35.306Z,11.50
2019-02-18T22:27:01.775Z,11.50
2019-02-18T22:29:29.251Z,11.50
2019-02-18T22:31:55.561Z,11.50
2019-02-18T22:34:21.841Z,11.50
2019-02-18T22:36:48.152Z,11.50
2019-02-18T22:39:14.396Z,11.50
2019-02-18T22:41:40.777Z,11.50
2019-02-18T22:44:07.087Z,11.40
2019-02-18T22:46:33.439Z,11.50
2019-02-18T22:48:59.993Z,11.50
2019-02-18T22:51:26.295Z,11.50
2019-02-18T22:53:52.637Z,11.40
2019-02-18T22:56:18.895Z,11.40
2019-02-18T22:58:45.199Z,11.40
2019-02-18T23:01:11.991Z,11.40
2019-02-18T23:03:38.796Z,11.40
2019-02-18T23:06:05.180Z,11.30
2019-02-18T23:08:31.499Z,11.40
2019-02-18T23:10:58.498Z,11.30
2019-02-18T23:13:24.915Z,11.30
2019-02-18T23:15:51.164Z,11.20
2019-02-18T23:18:17.473Z,11.20
2019-02-18T23:20:43.745Z,11.20
2019-02-18T23:23:10.350Z,11.20
2019-02-18T23:25:36.647Z,11.10
2019-02-18T23:28:03.128Z,11.10
2019-02-18T23:30:29.451Z,11.00
2019-02-18T23:32:56.281Z,11.00
2019-02-18T23:35:22.923Z,11.00
2019-02-18T23:37:49.243Z,10.90
2019-02-18T23:40:15.574Z,10.90
2019-02-18T23:42:43.731Z,10.90
2019-02-18T23:45:09.883Z,10.80
2019-02-18T23:47:36.201Z,10.80
2019-02-18T23:50:02.972Z,10.80
2019-02-18T23:52:29.374Z,10.80
2019-02-18T23:54:55.808Z,10.70
2019-02-18T23:57:22.066Z,10.70
2019-02-18T23:59:48.469Z,10.70
